Time;durP1;ratioP1;P1;durP2;ratioP2;P2;SDS_P1;SDS_P2;PMS_P1;PMS_P2;Temp;Humidity;BMP_temperature;BMP_pressure;BME280_temperature;BME280_humidity;BME280_pressure;Samples;Min_cycle;Max_cycle;Signal;HPM_P1;HPM_P2
2022/03/27 00:00:34;;;;;;;17.17;7.95;;;;;;;12.16;37.68;100826.81;4479650;31;33595;-81
2022/03/27 00:03:02;;;;;;;22.90;8.57;;;;;;;11.89;38.39;100829.44;4493574;31;33554;-81
2022/03/27 00:05:30;;;;;;;15.63;8.50;;;;;;;12.03;38.01;100827.19;4491639;31;33355;-81
2022/03/27 00:07:57;;;;;;;19.17;9.13;;;;;;;12.30;37.47;100829.84;4478758;31;32595;-81
2022/03/27 00:10:25;;;;;;;15.63;8.05;;;;;;;12.29;37.85;100828.09;4490336;31;34025;-81
2022/03/27 00:12:53;;;;;;;20.90;8.57;;;;;;;12.33;37.57;100824.44;4478380;31;33153;-81
2022/03/27 00:15:20;;;;;;;24.23;9.27;;;;;;;12.21;37.97;100831.03;4490238;31;33945;-81
2022/03/27 00:17:48;;;;;;;18.15;8.52;;;;;;;12.25;37.92;100831.78;4477689;31;33292;-82
2022/03/27 00:20:16;;;;;;;20.23;7.78;;;;;;;12.24;37.94;100824.75;4477685;31;33287;-81
2022/03/27 00:22:43;;;;;;;16.55;8.27;;;;;;;12.46;37.49;100825.72;4488552;31;33074;-82
2022/03/27 00:25:11;;;;;;;20.20;9.88;;;;;;;12.27;37.75;100833.44;4490374;31;34342;-81
2022/03/27 00:27:39;;;;;;;19.05;8.95;;;;;;;12.05;38.52;100824.50;4480796;31;32561;-82
2022/03/27 00:30:09;;;;;;;21.67;9.32;;;;;;;11.95;38.96;100828.38;4476816;31;34037;-81
2022/03/27 00:32:38;;;;;;;23.38;9.48;;;;;;;11.71;39.65;100828.22;4490927;31;33202;-81
2022/03/27 00:35:06;;;;;;;16.83;7.82;;;;;;;11.58;40.15;100837.44;4479089;31;32811;-81
2022/03/27 00:37:34;;;;;;;18.12;8.95;;;;;;;11.56;40.14;100835.78;4474210;31;32962;-81
2022/03/27 00:40:03;;;;;;;16.80;7.60;;;;;;;11.49;40.48;100828.03;4475474;31;34192;-81
2022/03/27 00:42:31;;;;;;;21.65;8.75;;;;;;;11.66;40.18;100837.22;4476678;31;34182;-81
2022/03/27 00:44:58;;;;;;;17.87;8.95;;;;;;;11.75;39.99;100834.28;4477004;31;33173;-81
2022/03/27 00:47:26;;;;;;;14.13;7.95;;;;;;;11.67;39.98;100849.53;4491376;31;34691;-81
2022/03/27 00:49:56;;;;;;;18.85;8.70;;;;;;;11.70;39.79;100847.66;4490168;31;34196;-81
2022/03/27 00:52:23;;;;;;;17.37;8.13;;;;;;;11.74;40.09;100837.84;4489134;31;33342;-81
2022/03/27 00:54:51;;;;;;;18.37;7.55;;;;;;;11.98;39.18;100839.72;4490365;31;33342;-81
2022/03/27 00:57:18;;;;;;;14.95;8.65;;;;;;;12.00;39.19;100845.81;4490581;31;33979;-81
2022/03/27 00:59:46;;;;;;;17.90;8.57;;;;;;;12.10;38.98;100850.81;4491794;31;33798;-81
2022/03/27 01:02:14;;;;;;;26.23;8.20;;;;;;;12.01;39.21;100850.22;4478176;31;33265;-81
2022/03/27 01:04:45;;;;;;;22.83;8.23;;;;;;;12.13;39.04;100842.78;4479419;31;33079;-81
2022/03/27 01:07:21;;;;;;;27.40;9.32;;;;;;;11.79;40.63;100841.22;4477870;31;33269;-81
2022/03/27 01:09:49;;;;;;;17.73;8.60;;;;;;;11.92;39.96;100845.22;4489653;31;33602;-81
2022/03/27 01:12:21;;;;;;;18.37;8.52;;;;;;;12.21;38.97;100836.31;4491869;31;33599;-81
2022/03/27 01:14:50;;;;;;;18.85;9.00;;;;;;;12.33;38.82;100840.31;4491184;31;33480;-81
2022/03/27 01:17:20;;;;;;;15.32;8.57;;;;;;;12.37;38.55;100841.94;4490645;31;33865;-81
2022/03/27 01:19:50;;;;;;;19.05;8.60;;;;;;;12.44;38.49;100843.47;4476458;31;34172;-82
2022/03/27 01:22:19;;;;;;;22.98;9.02;;;;;;;12.34;38.68;100839.38;4477072;31;34560;-81
2022/03/27 01:24:48;;;;;;;17.83;8.07;;;;;;;12.47;38.40;100840.69;4475479;31;34092;-82
2022/03/27 01:27:16;;;;;;;20.15;8.70;;;;;;;12.71;37.99;100840.75;4477141;31;33772;-81
2022/03/27 01:29:49;;;;;;;18.73;9.05;;;;;;;12.93;37.15;100840.84;4491355;31;34493;-81
2022/03/27 01:32:17;;;;;;;16.80;8.80;;;;;;;13.06;37.07;100844.78;4491190;31;34468;-81
2022/03/27 01:34:47;;;;;;;23.42;9.75;;;;;;;12.93;37.26;100844.38;4489978;31;34198;-81
2022/03/27 01:37:15;;;;;;;24.48;9.52;;;;;;;12.84;37.34;100830.59;4491024;31;34220;-81
2022/03/27 01:39:43;;;;;;;21.62;9.43;;;;;;;12.90;37.15;100839.16;4490711;31;33869;-81
2022/03/27 01:42:12;;;;;;;15.73;8.07;;;;;;;12.89;37.17;100845.41;4477235;31;33279;-81
2022/03/27 01:44:40;;;;;;;21.87;9.63;;;;;;;12.91;37.15;100846.19;4477138;31;33364;-81
2022/03/27 01:47:07;;;;;;;18.00;9.40;;;;;;;13.17;36.60;100849.69;4490217;31;33623;-82
2022/03/27 01:49:36;;;;;;;21.10;8.18;;;;;;;13.04;36.72;100850.13;4491493;31;33894;-81
2022/03/27 01:52:04;;;;;;;19.50;8.70;;;;;;;12.62;37.70;100862.28;4473893;31;32356;-81
2022/03/27 01:54:31;;;;;;;15.63;8.52;;;;;;;12.52;37.81;100869.69;4492860;31;34594;-81
2022/03/27 01:56:59;;;;;;;22.10;10.15;;;;;;;12.68;37.41;100867.37;4491938;31;33052;-81
2022/03/27 01:59:27;;;;;;;20.48;9.68;;;;;;;12.38;38.04;100866.66;4474527;31;33774;-82
2022/03/27 02:01:54;;;;;;;15.52;8.63;;;;;;;12.51;37.97;100871.47;4490394;31;34091;-81
2022/03/27 02:04:23;;;;;;;19.58;8.45;;;;;;;12.57;37.84;100865.94;4492164;31;33758;-82
2022/03/27 02:06:51;;;;;;;22.10;9.38;;;;;;;12.41;38.03;100863.91;4476840;31;32915;-81
2022/03/27 02:09:18;;;;;;;24.37;10.25;;;;;;;12.65;37.66;100867.47;4477964;31;33967;-81
2022/03/27 02:11:46;;;;;;;19.00;9.73;;;;;;;12.67;37.48;100862.97;4493658;31;35213;-81
2022/03/27 02:14:13;;;;;;;23.62;9.43;;;;;;;12.61;37.71;100866.72;4478009;31;33198;-81
2022/03/27 02:16:42;;;;;;;20.67;10.52;;;;;;;12.63;37.71;100866.66;4482096;31;33258;-81
2022/03/27 02:19:11;;;;;;;21.85;10.32;;;;;;;12.90;37.07;100865.66;4480696;31;34633;-81
2022/03/27 02:21:41;;;;;;;18.95;8.95;;;;;;;12.79;37.23;100857.25;4493307;31;34717;-81
2022/03/27 02:24:09;;;;;;;18.48;8.20;;;;;;;12.71;37.51;100869.91;4481353;31;34682;-81
2022/03/27 02:26:44;;;;;;;21.20;9.88;;;;;;;12.43;38.01;100872.66;4492265;31;32143;-81
2022/03/27 02:29:13;;;;;;;20.48;10.45;;;;;;;12.69;37.77;100869.09;4477168;31;33422;-80
2022/03/27 02:31:41;;;;;;;22.23;9.30;;;;;;;12.82;37.50;100873.91;4476786;31;33543;-81
2022/03/27 02:34:09;;;;;;;23.12;9.82;;;;;;;12.80;37.41;100873.09;4491248;31;34022;-83
2022/03/27 02:36:37;;;;;;;22.37;9.90;;;;;;;12.92;37.22;100878.88;4477817;31;32346;-82
2022/03/27 02:39:05;;;;;;;22.17;10.13;;;;;;;12.60;37.94;100882.69;4476973;31;33009;-83
2022/03/27 02:41:33;;;;;;;23.98;8.95;;;;;;;12.70;37.82;100884.06;4491443;31;33849;-82
2022/03/27 02:44:01;;;;;;;26.58;10.55;;;;;;;12.42;38.49;100886.81;4481840;31;33835;-83
2022/03/27 02:46:28;;;;;;;19.25;9.57;;;;;;;12.52;38.46;100894.37;4491872;31;33431;-82
2022/03/27 02:48:56;;;;;;;23.15;10.73;;;;;;;12.41;38.65;100891.25;4479500;31;33322;-82
2022/03/27 02:51:24;;;;;;;19.00;10.23;;;;;;;12.78;38.13;100895.28;4478037;31;34664;-81
2022/03/27 02:53:51;;;;;;;19.70;10.10;;;;;;;12.95;37.66;100892.88;4490890;31;33344;-81
2022/03/27 02:56:19;;;;;;;20.37;10.73;;;;;;;12.47;38.87;100891.03;4471828;31;32733;-81
2022/03/27 02:58:47;;;;;;;18.10;9.70;;;;;;;12.61;39.12;100895.84;4477377;31;33784;-81
2022/03/27 03:01:15;;;;;;;21.10;10.70;;;;;;;12.57;39.14;100892.44;4478368;31;34032;-81
2022/03/27 03:03:42;;;;;;;22.70;10.48;;;;;;;12.92;38.24;100893.00;4494836;31;33874;-81
2022/03/27 03:06:10;;;;;;;21.17;10.05;;;;;;;12.87;38.24;100889.66;4479813;31;33939;-81
2022/03/27 03:08:41;;;;;;;18.60;9.95;;;;;;;12.78;38.63;100885.53;4477977;31;32415;-81
2022/03/27 03:11:08;;;;;;;23.65;9.63;;;;;;;12.82;38.57;100894.25;4490840;31;33508;-81
2022/03/27 03:13:36;;;;;;;22.02;10.93;;;;;;;12.66;38.81;100895.69;4478559;31;33524;-81
2022/03/27 03:16:05;;;;;;;20.08;9.40;;;;;;;12.49;39.19;100894.50;4479250;31;33751;-81
2022/03/27 03:18:34;;;;;;;21.17;8.75;;;;;;;12.49;39.69;100907.75;4491210;31;33472;-80
2022/03/27 03:21:03;;;;;;;19.45;11.05;;;;;;;12.64;39.06;100908.16;4479233;31;33559;-80
2022/03/27 03:23:32;;;;;;;25.17;10.57;;;;;;;12.90;38.60;100905.44;4493240;31;33737;-81
2022/03/27 03:26:00;;;;;;;18.42;9.35;;;;;;;12.92;38.59;100914.22;4491657;31;33199;-80
2022/03/27 03:28:35;;;;;;;21.80;9.57;;;;;;;13.03;38.05;100924.44;4491015;31;32386;-80
2022/03/27 03:31:03;;;;;;;22.15;10.02;;;;;;;13.33;37.37;100917.16;4480002;31;33381;-81
2022/03/27 03:33:32;;;;;;;27.60;11.40;;;;;;;13.25;37.43;100921.91;4492055;31;34285;-81
2022/03/27 03:36:00;;;;;;;23.65;11.02;;;;;;;13.27;37.69;100930.66;4491770;31;33445;-81
2022/03/27 03:38:27;;;;;;;17.55;9.73;;;;;;;13.11;38.03;100940.06;4494460;31;33510;-81
2022/03/27 03:40:55;;;;;;;20.27;10.35;;;;;;;12.98;38.50;100929.03;4477315;31;33561;-81
2022/03/27 03:43:22;;;;;;;21.55;10.18;;;;;;;12.97;38.31;100932.59;4466684;31;34340;-81
2022/03/27 03:45:50;;;;;;;27.75;10.40;;;;;;;12.86;38.67;100937.41;4465379;31;31872;-82
2022/03/27 03:48:18;;;;;;;17.90;9.55;;;;;;;13.01;38.36;100935.09;4478297;31;33039;-82
2022/03/27 03:50:45;;;;;;;19.73;10.35;;;;;;;13.06;38.13;100943.75;4465553;31;34443;-82
2022/03/27 03:53:13;;;;;;;19.35;9.63;;;;;;;12.94;38.28;100938.87;4492421;31;33478;-82
2022/03/27 03:55:40;;;;;;;19.75;10.48;;;;;;;13.07;37.98;100945.47;4490611;31;33432;-82
2022/03/27 03:58:08;;;;;;;20.60;9.85;;;;;;;12.87;38.20;100942.69;4477907;31;32844;-82
2022/03/27 04:00:36;;;;;;;23.48;11.27;;;;;;;12.81;38.47;100949.03;4476954;31;34092;-82
2022/03/27 04:03:04;;;;;;;16.70;9.55;;;;;;;12.72;38.96;100944.06;4478577;31;33588;-82
2022/03/27 04:05:32;;;;;;;29.52;10.38;;;;;;;12.51;39.03;100950.09;4480020;31;33867;-82
2022/03/27 04:08:00;;;;;;;20.85;9.88;;;;;;;12.69;38.75;100953.91;4466436;31;34270;-82
2022/03/27 04:10:28;;;;;;;21.33;10.40;;;;;;;12.77;38.54;100951.84;4492566;31;33921;-81
2022/03/27 04:12:55;;;;;;;16.45;10.45;;;;;;;12.64;39.18;100956.72;4477048;31;33202;-81
2022/03/27 04:15:23;;;;;;;21.80;8.98;;;;;;;12.63;39.05;100956.75;4492405;31;33933;-81
2022/03/27 04:18:11;;;;;;;27.27;11.68;;;;;;;12.68;38.94;100958.34;4491494;31;33571;-81
2022/03/27 04:20:40;;;;;;;21.20;10.35;;;;;;;12.62;39.15;100968.25;4491213;31;33806;-81
2022/03/27 04:23:08;;;;;;;33.10;11.23;;;;;;;12.50;39.42;100969.56;4490932;31;33426;-82
2022/03/27 04:25:36;;;;;;;18.20;11.07;;;;;;;12.59;39.14;100984.28;4480556;31;31980;-81
2022/03/27 04:28:08;;;;;;;24.15;10.38;;;;;;;12.56;39.25;100991.41;4490933;31;33585;-81
2022/03/27 04:30:37;;;;;;;20.75;10.27;;;;;;;12.46;39.79;100987.31;4491930;31;33934;-81
2022/03/27 04:33:07;;;;;;;23.33;9.75;;;;;;;12.18;40.82;100994.41;4478020;31;34260;-81
2022/03/27 04:35:35;;;;;;;20.70;9.88;;;;;;;12.35;40.36;100997.41;4490124;31;34191;-81
2022/03/27 04:38:03;;;;;;;25.60;11.38;;;;;;;12.13;40.92;101009.56;4492836;31;34468;-81
2022/03/27 04:40:31;;;;;;;22.80;10.57;;;;;;;12.34;40.51;101021.28;4492077;31;34772;-81
2022/03/27 04:42:58;;;;;;;28.85;11.93;;;;;;;12.08;41.29;101024.75;4477951;31;33606;-82
2022/03/27 04:45:26;;;;;;;23.65;11.60;;;;;;;12.20;40.94;101029.63;4479275;31;31905;-82
2022/03/27 04:47:54;;;;;;;26.33;10.50;;;;;;;12.14;40.93;101036.00;4480350;31;32996;-82
2022/03/27 04:50:21;;;;;;;19.87;9.77;;;;;;;12.11;41.47;101045.84;4478019;31;32518;-82
2022/03/27 04:52:49;;;;;;;22.70;10.60;;;;;;;12.02;41.67;101047.84;4491148;31;34591;-81
2022/03/27 04:55:17;;;;;;;21.05;10.63;;;;;;;11.90;42.19;101052.62;4490934;31;32975;-81
2022/03/27 04:57:44;;;;;;;20.17;11.07;;;;;;;12.14;41.62;101046.59;4491688;31;33779;-81
2022/03/27 05:00:17;;;;;;;21.08;10.93;;;;;;;12.04;42.03;101053.94;4477334;31;33777;-81
2022/03/27 05:02:45;;;;;;;;;;;;;;;12.21;41.62;101063.19;4490665;31;33705;-81
2022/03/27 05:05:13;;;;;;;19.10;9.80;;;;;;;12.34;41.32;101055.69;4490335;31;33483;-81
2022/03/27 05:07:42;;;;;;;22.65;10.88;;;;;;;12.35;41.28;101060.13;4477029;31;33044;-80
2022/03/27 05:10:12;;;;;;;20.55;10.85;;;;;;;12.18;41.64;101063.25;4477341;31;33416;-81
2022/03/27 05:12:40;;;;;;;24.05;10.68;;;;;;;12.27;41.54;101061.19;4491768;31;33827;-80
2022/03/27 05:15:09;;;;;;;23.40;11.38;;;;;;;12.13;42.07;101067.81;4489659;31;34306;-80
2022/03/27 05:17:46;;;;;;;23.95;10.75;;;;;;;12.16;42.16;101065.97;4488640;31;33509;-81
2022/03/27 05:20:14;;;;;;;24.02;9.88;;;;;;;12.18;42.21;101084.44;4492184;31;33302;-81
2022/03/27 05:22:42;;;;;;;26.20;10.50;;;;;;;12.40;42.09;101088.19;4476885;31;33264;-81
2022/03/27 05:25:11;;;;;;;22.02;10.90;;;;;;;12.36;42.29;101081.25;4489670;31;33411;-80
2022/03/27 05:27:50;;;;;;;28.10;10.98;;;;;;;12.49;42.34;101074.66;4491852;31;33646;-80
2022/03/27 05:30:22;;;;;;;20.73;11.00;;;;;;;12.40;42.55;101074.94;4487296;31;33886;-81
2022/03/27 05:32:51;;;;;;;18.70;10.35;;;;;;;12.47;42.24;101081.75;4488546;31;34666;-81
2022/03/27 05:35:20;;;;;;;26.12;10.35;;;;;;;12.10;42.92;101087.31;4490074;31;33537;-81
2022/03/27 05:37:49;;;;;;;14.63;8.55;;;;;;;11.93;43.87;101089.59;4490987;31;34634;-81
2022/03/27 05:40:18;;;;;;;18.67;10.00;;;;;;;12.15;42.82;101103.06;4478659;31;34811;-82
2022/03/27 05:42:47;;;;;;;14.40;8.60;;;;;;;12.15;42.79;101098.63;4490604;31;34612;-83
2022/03/27 05:45:15;;;;;;;15.25;7.95;;;;;;;12.43;42.25;101106.62;4465606;31;32783;-81
2022/03/27 05:47:43;;;;;;;15.98;9.32;;;;;;;12.35;42.56;101113.09;4478627;31;33632;-82
2022/03/27 05:50:13;;;;;;;16.58;7.57;;;;;;;12.84;41.93;101107.09;4477777;31;33827;-82
2022/03/27 05:52:42;;;;;;;14.55;8.50;;;;;;;12.43;42.07;101111.91;4476341;31;33895;-81
2022/03/27 05:55:12;;;;;;;12.35;7.15;;;;;;;12.69;42.03;101119.06;4476191;31;33491;-82
2022/03/27 05:57:40;;;;;;;17.15;8.38;;;;;;;12.60;42.19;101115.84;4491225;31;34404;-81
2022/03/27 06:00:09;;;;;;;15.18;8.10;;;;;;;12.49;42.31;101125.00;4465202;31;32752;-82
2022/03/27 06:02:36;;;;;;;12.82;7.00;;;;;;;12.45;42.35;101136.59;4490846;31;33480;-82
2022/03/27 06:05:05;;;;;;;15.25;7.55;;;;;;;12.62;42.03;101137.84;4490071;31;33526;-82
2022/03/27 06:07:41;;;;;;;11.88;7.62;;;;;;;12.69;42.32;101134.97;4476465;31;33464;-82
2022/03/27 06:10:09;;;;;;;10.88;6.75;;;;;;;12.79;42.04;101143.50;4489740;31;33735;-81
2022/03/27 06:12:37;;;;;;;12.25;6.57;;;;;;;13.06;42.04;101150.56;4490141;31;33609;-82
2022/03/27 06:15:05;;;;;;;12.13;6.72;;;;;;;13.30;40.85;101153.38;4462487;31;33613;-81
2022/03/27 06:17:41;;;;;;;16.05;7.15;;;;;;;13.35;41.08;101155.87;4490339;31;33536;-82
2022/03/27 06:20:10;;;;;;;12.52;7.00;;;;;;;13.22;42.06;101158.91;4488112;31;34383;-82
2022/03/27 06:22:39;;;;;;;11.98;6.68;;;;;;;13.45;40.72;101163.47;4462113;31;33960;-82
2022/03/27 06:25:08;;;;;;;10.40;6.72;;;;;;;13.19;41.65;101171.38;4489346;31;33052;-82
2022/03/27 06:27:37;;;;;;;10.85;6.87;;;;;;;12.98;42.25;101171.16;4489734;31;33213;-82
2022/03/27 06:30:13;;;;;;;10.70;6.40;;;;;;;13.17;41.74;101175.87;4487275;31;33870;-81
2022/03/27 06:32:41;;;;;;;8.40;6.10;;;;;;;13.40;41.29;101169.84;4482671;31;33512;-81
2022/03/27 06:35:10;;;;;;;9.82;6.60;;;;;;;13.76;40.66;101168.56;4478329;31;34178;-82
2022/03/27 06:37:39;;;;;;;12.45;5.85;;;;;;;13.72;40.67;101172.28;4466299;31;32550;-83
2022/03/27 06:40:07;;;;;;;10.57;6.60;;;;;;;13.22;42.55;101172.19;4477625;31;33890;-82
2022/03/27 06:42:36;;;;;;;12.32;5.87;;;;;;;13.36;42.18;101177.03;4476434;31;34202;-82
2022/03/27 06:45:04;;;;;;;11.10;6.37;;;;;;;13.61;41.04;101178.84;4476692;31;33493;-81
2022/03/27 06:47:33;;;;;;;12.60;6.10;;;;;;;13.78;40.55;101184.47;4489645;31;34346;-81
2022/03/27 06:50:04;;;;;;;10.52;6.25;;;;;;;13.64;41.07;101182.28;4487793;31;32440;-81
2022/03/27 06:52:32;;;;;;;10.65;6.22;;;;;;;13.85;40.89;101180.66;4476713;31;32960;-81
2022/03/27 06:55:00;;;;;;;10.27;6.62;;;;;;;13.92;40.41;101179.53;4488217;31;34196;-81
2022/03/27 06:57:28;;;;;;;8.73;5.80;;;;;;;13.94;40.58;101172.37;4489025;31;33666;-81
2022/03/27 07:05:35;;;;;;;15.18;6.85;;;;;;;14.54;40.38;101181.69;4496139;31;34252;-80
2022/03/27 07:08:08;;;;;;;11.07;6.60;;;;;;;14.97;38.61;101177.34;4493142;31;33611;-80
2022/03/27 07:10:37;;;;;;;9.13;5.72;;;;;;;14.57;39.71;101186.91;4485226;31;33908;-80
2022/03/27 07:13:08;;;;;;;9.98;6.07;;;;;;;14.93;39.03;101189.03;4476933;31;32720;-81
2022/03/27 07:15:37;;;;;;;10.25;6.10;;;;;;;14.98;38.85;101184.41;4476480;31;33956;-80
2022/03/27 07:18:05;;;;;;;11.60;6.65;;;;;;;14.69;39.32;101193.53;4478593;31;33494;-81
2022/03/27 07:20:37;;;;;;;8.25;5.47;;;;;;;14.81;38.79;101197.50;4488252;31;34000;-81
2022/03/27 07:23:06;;;;;;;12.98;6.43;;;;;;;15.25;38.60;101181.56;4476200;31;33651;-81
2022/03/27 07:25:35;;;;;;;13.27;6.22;;;;;;;15.38;37.80;101182.75;4477512;31;32287;-81
2022/03/27 07:28:04;;;;;;;12.82;6.65;;;;;;;14.93;38.75;101190.84;4477914;31;33711;-81
2022/03/27 07:30:32;;;;;;;9.30;5.45;;;;;;;15.09;38.89;101187.50;4481306;31;33244;-81
2022/03/27 07:33:01;;;;;;;9.07;5.90;;;;;;;14.98;39.13;101194.19;4493910;31;34023;-81
2022/03/27 07:35:31;;;;;;;8.88;5.53;;;;;;;14.96;38.98;101202.22;4479090;31;32855;-81
2022/03/27 07:38:00;;;;;;;11.00;5.60;;;;;;;15.42;38.06;101200.34;4488724;31;33625;-81
2022/03/27 07:40:28;;;;;;;8.25;5.43;;;;;;;15.23;38.51;101199.37;4490133;31;32718;-81
2022/03/27 07:42:56;;;;;;;9.68;6.47;;;;;;;15.49;38.49;101206.31;4478295;31;33937;-81
2022/03/27 07:45:26;;;;;;;8.63;6.25;;;;;;;15.54;38.14;101199.84;4491061;31;32554;-81
2022/03/27 07:47:55;;;;;;;10.95;5.95;;;;;;;15.99;36.83;101204.16;4477606;31;33353;-81
2022/03/27 07:50:25;;;;;;;9.38;5.47;;;;;;;16.20;37.03;101204.16;4480038;31;32749;-81
2022/03/27 07:52:53;;;;;;;11.27;6.25;;;;;;;16.37;37.07;101206.91;4490841;31;32910;-82
2022/03/27 07:55:22;;;;;;;12.45;6.07;;;;;;;16.20;37.36;101198.81;4490012;31;34156;-81
2022/03/27 07:57:55;;;;;;;7.32;5.50;;;;;;;15.53;37.67;101211.44;4478438;31;33230;-82
2022/03/27 08:00:23;;;;;;;13.27;6.45;;;;;;;15.24;38.68;101204.66;4478567;31;33655;-81
2022/03/27 08:02:52;;;;;;;10.57;5.82;;;;;;;15.67;38.41;101205.56;4488892;31;33893;-82
2022/03/27 08:05:21;;;;;;;16.95;5.72;;;;;;;15.59;38.34;101216.50;4488172;31;33033;-82
2022/03/27 08:07:50;;;;;;;8.35;5.68;;;;;;;16.19;37.35;101203.28;4461612;31;33051;-81
2022/03/27 08:10:18;;;;;;;11.02;6.37;;;;;;;16.01;38.35;101196.09;4474009;31;34635;-81
2022/03/27 08:12:48;;;;;;;11.30;5.72;;;;;;;15.52;38.64;101203.50;4477504;31;33680;-81
2022/03/27 08:15:17;;;;;;;11.60;5.57;;;;;;;16.01;38.36;101202.31;4474428;31;32650;-81
2022/03/27 08:17:51;;;;;;;10.25;5.90;;;;;;;16.06;38.25;101196.78;4475212;31;33692;-82
2022/03/27 08:20:21;;;;;;;17.98;7.20;;;;;;;15.92;38.88;101204.50;4476183;31;34375;-82
2022/03/27 08:22:49;;;;;;;9.95;6.68;;;;;;;15.95;38.70;101199.91;4477354;31;35296;-80
2022/03/27 08:26:55;;;;;;;10.82;6.37;;;;;;;16.29;38.54;101198.41;4476350;31;33581;-81
2022/03/27 08:28:07;;;;;;;12.25;6.80;;;;;;;15.95;38.38;101194.59;4491125;31;33539;-81
2022/03/27 08:30:35;;;;;;;9.43;6.97;;;;;;;15.95;38.72;101194.59;4465412;31;34156;-81
2022/03/27 08:33:04;;;;;;;12.63;6.75;;;;;;;16.09;38.51;101197.50;4476350;31;33497;-82
2022/03/27 08:35:32;;;;;;;9.13;6.05;;;;;;;16.05;38.23;101190.59;4478093;31;32406;-81
2022/03/27 08:38:00;;;;;;;9.68;6.37;;;;;;;16.03;38.71;101192.44;4464634;31;33711;-82
2022/03/27 08:40:27;;;;;;;9.70;6.53;;;;;;;16.03;38.95;101192.44;4488483;31;33274;-81
2022/03/27 08:42:55;;;;;;;10.93;6.62;;;;;;;16.14;38.10;101194.59;4465959;31;32881;-82
2022/03/27 08:45:23;;;;;;;11.55;6.45;;;;;;;16.30;38.18;101193.00;4476855;31;34226;-82
2022/03/27 08:47:51;;;;;;;8.90;6.22;;;;;;;16.88;38.25;101189.47;4489306;31;32405;-82
2022/03/27 08:50:34;;;;;;;9.75;6.00;;;;;;;17.09;36.86;101195.56;4488808;31;33603;-82
2022/03/27 08:53:04;;;;;;;19.60;7.03;;;;;;;17.55;36.12;101191.47;4480853;31;31944;-82
2022/03/27 08:55:56;;;;;;;11.20;6.82;;;;;;;17.05;36.47;101194.84;4464327;31;34156;-81
2022/03/27 08:58:40;;;;;;;13.82;6.65;;;;;;;16.69;36.76;101196.56;4475658;31;32374;-82
2022/03/27 09:01:08;;;;;;;12.77;6.00;;;;;;;16.58;38.02;101210.41;4476964;31;33623;-81
2022/03/27 09:03:36;;;;;;;10.48;6.72;;;;;;;16.55;37.30;101200.72;4465486;31;32636;-82
2022/03/27 09:06:05;;;;;;;13.25;7.62;;;;;;;16.63;37.14;101206.59;4476925;31;34103;-83
2022/03/27 09:08:37;;;;;;;10.93;6.93;;;;;;;16.44;38.09;101208.38;4475865;31;32476;-82
2022/03/27 09:11:06;;;;;;;9.35;5.78;;;;;;;16.37;37.65;101210.44;4475705;31;33455;-82
2022/03/27 09:13:34;;;;;;;13.77;7.05;;;;;;;17.22;37.27;101206.50;4470184;31;34090;-83
2022/03/27 09:16:08;;;;;;;16.67;7.25;;;;;;;17.22;36.31;101210.03;4467157;31;33013;-82
2022/03/27 09:18:47;;;;;;;13.68;6.70;;;;;;;17.33;36.30;101204.19;4490644;31;33820;-83
2022/03/27 09:21:21;;;;;;;16.95;7.60;;;;;;;17.45;35.98;101205.38;4465027;31;33031;-83
2022/03/27 09:24:07;;;;;;;13.13;7.28;;;;;;;17.95;34.42;101202.84;4490333;31;33375;-83
2022/03/27 09:26:57;;;;;;;13.68;7.18;;;;;;;17.40;35.49;101211.81;4478127;31;33385;-84
2022/03/27 09:29:25;;;;;;;17.85;9.43;;;;;;;17.77;35.50;101198.44;4476375;31;34492;-82
2022/03/27 09:31:58;;;;;;;13.82;8.30;;;;;;;17.76;35.14;101202.06;4475686;31;34619;-84
2022/03/27 09:34:25;;;;;;;13.05;6.95;;;;;;;17.79;34.66;101202.75;4475255;31;33398;-84
2022/03/27 09:36:55;;;;;;;11.68;6.47;;;;;;;17.84;34.46;101205.19;4489210;31;31963;-83
2022/03/27 09:39:24;;;;;;;16.90;7.35;;;;;;;18.36;34.10;101194.41;4471493;31;33018;-83
2022/03/27 09:42:01;;;;;;;15.27;6.80;;;;;;;17.54;35.48;101191.56;4489751;31;33621;-83
2022/03/27 09:44:28;;;;;;;18.45;7.15;;;;;;;18.11;35.10;101197.53;4489031;31;34574;-82
2022/03/27 09:46:57;;;;;;;21.77;8.48;;;;;;;18.50;34.55;101199.03;4487489;31;31913;-83
2022/03/27 09:49:32;;;;;;;15.43;7.35;;;;;;;17.76;35.36;101196.72;4492387;31;34496;-82
2022/03/27 09:52:30;;;;;;;13.48;7.90;;;;;;;17.98;33.62;101194.62;4489077;31;33569;-82
2022/03/27 09:55:07;;;;;;;10.35;6.70;;;;;;;17.90;34.31;101199.53;4486717;31;33435;-82
2022/03/27 09:57:38;;;;;;;9.65;6.32;;;;;;;17.70;34.64;101191.62;4476354;31;31930;-82
2022/03/27 10:00:18;;;;;;;9.10;6.12;;;;;;;18.23;34.50;101190.66;4489716;31;34529;-82
2022/03/27 10:02:51;;;;;;;8.50;6.80;;;;;;;18.20;33.92;101193.53;4476226;31;33791;-82
2022/03/27 10:05:21;;;;;;;14.75;6.57;;;;;;;17.97;33.95;101192.91;4492769;31;33879;-83
2022/03/27 10:07:54;;;;;;;9.75;6.18;;;;;;;18.11;34.30;101187.72;4477191;31;33557;-82
2022/03/27 10:10:23;;;;;;;10.82;6.93;;;;;;;18.68;33.51;101188.22;4488019;31;34292;-82
2022/03/27 10:13:00;;;;;;;10.52;6.87;;;;;;;18.76;32.94;101187.78;4476616;31;33893;-82
2022/03/27 10:15:29;;;;;;;10.68;6.87;;;;;;;18.05;33.95;101181.84;4491044;31;33613;-83
2022/03/27 10:18:01;;;;;;;18.10;7.68;;;;;;;18.83;32.19;101182.94;4474825;31;33131;-82
2022/03/27 10:20:32;;;;;;;9.25;5.45;;;;;;;18.40;32.73;101188.81;4477494;31;34246;-82
2022/03/27 10:23:03;;;;;;;10.23;6.75;;;;;;;18.61;31.93;101189.47;4478318;31;34667;-82
2022/03/27 10:25:38;;;;;;;14.35;6.75;;;;;;;18.79;32.90;101184.91;4479080;31;33808;-83
2022/03/27 10:28:07;;;;;;;7.50;5.95;;;;;;;18.68;33.26;101185.53;4460041;31;32720;-82
2022/03/27 10:30:34;;;;;;;15.55;6.82;;;;;;;18.68;32.92;101182.84;4478128;31;33606;-82
2022/03/27 10:33:02;;;;;;;12.82;6.78;;;;;;;18.75;32.31;101188.72;4477165;31;33151;-82
2022/03/27 10:35:57;;;;;;;9.25;6.10;;;;;;;19.41;31.54;101177.78;4479815;31;33508;-82
2022/03/27 10:38:35;;;;;;;11.07;7.20;;;;;;;19.50;32.01;101175.53;4492253;31;32992;-82
2022/03/27 10:41:35;;;;;;;10.50;6.35;;;;;;;19.52;31.89;101171.81;4488653;31;32298;-82
2022/03/27 10:44:16;;;;;;;9.32;6.15;;;;;;;19.04;32.39;101183.56;4477661;31;34300;-83
2022/03/27 10:46:47;;;;;;;10.73;6.75;;;;;;;19.66;29.58;101161.16;4477485;31;33465;-82
2022/03/27 10:49:17;;;;;;;10.07;7.40;;;;;;;19.54;30.72;101167.22;4490614;31;33136;-82
2022/03/27 10:51:46;;;;;;;9.35;6.87;;;;;;;19.12;32.50;101181.28;4477495;31;33433;-82
2022/03/27 10:54:18;;;;;;;9.73;6.82;;;;;;;18.46;31.72;101182.25;4478370;31;33852;-83
2022/03/27 10:56:52;;;;;;;16.70;7.18;;;;;;;19.35;32.19;101178.16;4478877;31;32800;-82
2022/03/27 10:59:24;;;;;;;12.55;6.95;;;;;;;19.63;32.02;101169.37;4491164;31;33885;-82
2022/03/27 11:01:58;;;;;;;9.93;6.75;;;;;;;20.02;30.16;101164.38;4493674;31;33573;-82
2022/03/27 11:04:41;;;;;;;9.05;6.60;;;;;;;20.31;28.69;101146.47;4491112;31;34690;-82
2022/03/27 11:07:15;;;;;;;;;;;;;;;20.57;28.74;101147.53;4491078;31;34221;-82
2022/03/27 11:09:44;;;;;;;12.37;5.90;;;;;;;20.21;29.94;101147.03;4477136;31;33568;-83
2022/03/27 11:12:25;;;;;;;14.02;6.90;;;;;;;20.28;29.60;101141.31;4478045;31;33116;-82
2022/03/27 11:14:52;;;;;;;9.95;6.75;;;;;;;20.20;29.02;101145.31;4489740;31;33873;-83
2022/03/27 11:17:31;;;;;;;16.65;8.73;;;;;;;20.53;28.49;101146.88;4491173;31;34156;-81
2022/03/27 11:19:59;;;;;;;11.85;6.65;;;;;;;20.26;29.02;101146.75;4480497;31;32665;-81
2022/03/27 11:23:04;;;;;;;8.98;6.47;;;;;;;20.76;30.29;101140.03;4493847;31;33006;-81
2022/03/27 11:25:36;;;;;;;9.55;6.40;;;;;;;21.21;28.70;101138.81;4431340;32;33372;-81
2022/03/27 11:28:05;;;;;;;11.30;7.85;;;;;;;21.63;27.60;101144.97;4470603;31;32625;-81
2022/03/27 11:30:38;;;;;;;10.68;7.22;;;;;;;20.76;26.70;101141.84;4491766;31;33140;-81
2022/03/27 11:33:26;;;;;;;10.93;7.00;;;;;;;21.32;27.48;101135.44;4472848;31;34566;-81
2022/03/27 11:36:09;;;;;;;11.52;6.65;;;;;;;20.89;28.25;101126.69;4477571;31;34694;-81